createdAt,value
2018-06-18T00:00:43.957Z,16.80
2018-06-18T00:03:14.029Z,16.90
2018-06-18T00:05:44.125Z,16.90
2018-06-18T00:08:14.205Z,17.00
2018-06-18T00:10:44.301Z,17.10
2018-06-18T00:13:14.387Z,17.10
2018-06-18T00:15:44.496Z,17.00
2018-06-18T00:18:14.568Z,17.10
2018-06-18T00:20:44.661Z,17.00
2018-06-18T00:23:14.733Z,17.00
2018-06-18T00:25:44.832Z,17.10
2018-06-18T00:28:14.889Z,17.10
2018-06-18T00:30:44.960Z,17.20
2018-06-18T00:33:15.025Z,17.20
2018-06-18T00:35:45.099Z,17.20
2018-06-18T00:38:15.192Z,17.20
2018-06-18T00:40:45.302Z,17.30
2018-06-18T00:43:15.431Z,17.30
2018-06-18T00:45:45.505Z,17.40
2018-06-18T00:48:16.465Z,17.40
2018-06-18T00:50:46.556Z,17.40
2018-06-18T00:53:16.651Z,17.40
2018-06-18T00:56:03.659Z,17.40
2018-06-18T00:58:33.753Z,17.40
2018-06-18T01:03:33.599Z,17.50
2018-06-18T01:06:03.812Z,17.50
2018-06-18T01:08:34.036Z,17.60
2018-06-18T01:11:04.165Z,17.50
2018-06-18T01:16:03.932Z,17.50
2018-06-18T01:18:34.041Z,17.60
2018-06-18T01:21:04.128Z,17.60
2018-06-18T01:23:48.440Z,17.60
2018-06-18T01:26:18.608Z,17.60
2018-06-18T01:28:48.764Z,17.60
2018-06-18T01:31:18.983Z,17.60
2018-06-18T01:33:50.123Z,17.60
2018-06-18T01:36:20.237Z,17.80
2018-06-18T01:38:50.348Z,17.80
2018-06-18T01:41:20.451Z,17.90
2018-06-18T01:43:50.553Z,17.90
2018-06-18T01:46:20.655Z,18.10
2018-06-18T01:48:50.720Z,18.20
2018-06-18T01:51:20.828Z,18.40
2018-06-18T01:53:50.928Z,18.60
2018-06-18T01:56:21.005Z,18.70
2018-06-18T01:58:51.089Z,18.80
2018-06-18T02:01:21.196Z,18.90
2018-06-18T02:03:51.281Z,18.90
2018-06-18T02:06:21.608Z,19.00
2018-06-18T02:08:51.669Z,19.00
2018-06-18T02:11:21.755Z,19.00
2018-06-18T02:13:51.832Z,19.00
2018-06-18T02:16:21.991Z,19.10
2018-06-18T02:18:52.360Z,19.20
2018-06-18T02:21:22.470Z,19.20
2018-06-18T02:23:52.573Z,19.30
2018-06-18T02:26:22.752Z,19.30
2018-06-18T02:28:58.014Z,19.30
2018-06-18T02:31:33.357Z,19.40
2018-06-18T02:34:08.629Z,19.50
2018-06-18T02:36:44.024Z,19.40
2018-06-18T02:39:14.940Z,19.40
2018-06-18T02:41:45.972Z,19.40
2018-06-18T02:44:16.060Z,19.30
2018-06-18T02:49:15.855Z,19.30
2018-06-18T02:51:45.929Z,19.30
2018-06-18T02:54:16.080Z,19.30
2018-06-18T02:57:00.941Z,19.30
2018-06-18T02:59:31.058Z,19.40
2018-06-18T03:02:01.241Z,19.40
2018-06-18T03:04:31.311Z,19.40
2018-06-18T03:07:01.433Z,19.40
2018-06-18T03:09:31.536Z,19.40
2018-06-18T03:12:01.600Z,19.40
2018-06-18T03:14:31.691Z,19.40
2018-06-18T03:17:01.806Z,19.40
2018-06-18T03:19:37.172Z,19.40
2018-06-18T03:23:11.040Z,19.30
2018-06-18T03:25:46.448Z,19.20
2018-06-18T03:28:21.684Z,19.20
2018-06-18T03:30:51.784Z,19.10
2018-06-18T03:33:21.843Z,19.10
2018-06-18T03:35:51.940Z,19.00
2018-06-18T03:38:21.988Z,19.00
2018-06-18T03:40:52.096Z,19.00
2018-06-18T03:43:22.188Z,18.90
2018-06-18T03:45:52.250Z,19.00
2018-06-18T03:48:22.416Z,19.00
2018-06-18T03:53:22.207Z,19.00
2018-06-18T03:55:57.763Z,19.00
2018-06-18T03:58:27.936Z,19.10
2018-06-18T04:02:18.416Z,19.00
2018-06-18T04:04:59.608Z,19.00
2018-06-18T04:07:37.499Z,19.00
2018-06-18T04:10:12.831Z,19.00
2018-06-18T04:12:42.964Z,19.00
2018-06-18T04:15:13.028Z,18.90
2018-06-18T04:17:43.120Z,18.90
2018-06-18T04:20:13.203Z,18.90
2018-06-18T04:22:43.393Z,18.90
2018-06-18T04:25:13.519Z,18.90
2018-06-18T04:27:43.651Z,18.90
2018-06-18T04:30:13.761Z,18.80
2018-06-18T04:32:43.976Z,18.90
2018-06-18T04:35:14.045Z,18.80
2018-06-18T04:37:44.160Z,18.70
2018-06-18T04:40:14.230Z,18.80
2018-06-18T04:42:49.575Z,18.70
2018-06-18T04:45:24.884Z,18.70
2018-06-18T04:48:00.141Z,18.70
2018-06-18T04:50:35.276Z,18.80
2018-06-18T04:53:06.230Z,18.80
2018-06-18T04:55:36.380Z,18.80
2018-06-18T04:58:06.786Z,18.80
2018-06-18T05:01:23.543Z,18.80
2018-06-18T05:03:54.007Z,18.80
2018-06-18T05:06:26.477Z,18.80
2018-06-18T05:10:32.888Z,18.90
2018-06-18T05:13:03.020Z,19.00
2018-06-18T05:15:37.865Z,19.00
2018-06-18T05:18:08.101Z,19.10
2018-06-18T05:20:38.257Z,19.20
2018-06-18T05:23:14.648Z,19.20
2018-06-18T05:25:45.556Z,19.20
2018-06-18T05:28:15.627Z,19.20
2018-06-18T05:30:45.722Z,19.20
2018-06-18T05:33:15.796Z,19.20
2018-06-18T05:35:45.881Z,19.30
2018-06-18T05:38:29.543Z,19.50
2018-06-18T05:41:00.141Z,20.10
2018-06-18T05:43:30.892Z,21.00
2018-06-18T05:46:01.022Z,21.90
2018-06-18T05:48:31.108Z,23.00
2018-06-18T05:51:01.200Z,24.00
2018-06-18T05:53:31.294Z,24.70
2018-06-18T05:56:01.396Z,25.10
2018-06-18T05:58:31.472Z,25.50
2018-06-18T06:01:01.549Z,25.70
2018-06-18T06:03:31.627Z,25.20
2018-06-18T06:06:01.764Z,24.90
2018-06-18T06:08:31.868Z,24.60
2018-06-18T06:11:01.992Z,24.40
2018-06-18T06:13:32.065Z,24.10
2018-06-18T06:16:02.136Z,23.90
2018-06-18T06:18:32.236Z,23.60
2018-06-18T06:21:07.493Z,23.70
2018-06-18T06:23:37.608Z,24.10
2018-06-18T06:26:07.731Z,24.10
2018-06-18T06:28:37.841Z,24.50
2018-06-18T06:31:07.933Z,24.80
2018-06-18T06:33:38.073Z,24.70
2018-06-18T06:36:10.043Z,24.60
2018-06-18T06:38:40.128Z,24.70
2018-06-18T06:41:11.423Z,24.90
2018-06-18T06:43:41.563Z,25.30
2018-06-18T06:46:11.662Z,26.20
2018-06-18T06:48:41.747Z,26.50
2018-06-18T06:51:11.809Z,26.40
2018-06-18T06:53:41.907Z,26.30
2018-06-18T06:56:12.020Z,26.00
2018-06-18T06:58:42.095Z,26.40
2018-06-18T07:01:12.221Z,27.20
2018-06-18T07:03:42.284Z,27.70
2018-06-18T07:06:12.363Z,27.80
2018-06-18T07:08:42.562Z,27.90
2018-06-18T07:11:12.644Z,27.40
2018-06-18T07:13:42.790Z,27.00
2018-06-18T07:16:12.798Z,26.60
2018-06-18T07:18:42.935Z,26.20
2018-06-18T07:21:13.011Z,25.80
2018-06-18T07:23:43.166Z,25.70
2018-06-18T07:26:13.220Z,25.60
2018-06-18T07:28:43.320Z,25.60
2018-06-18T07:31:13.392Z,25.80
2018-06-18T07:33:43.464Z,25.90
2018-06-18T07:36:13.551Z,26.20
2018-06-18T07:38:43.604Z,26.40
2018-06-18T07:41:13.696Z,26.70
2018-06-18T07:43:43.776Z,27.30
2018-06-18T07:46:13.844Z,27.80
2018-06-18T07:48:43.938Z,28.30
2018-06-18T07:51:14.021Z,28.50
2018-06-18T07:53:44.108Z,28.90
2018-06-18T07:56:14.172Z,29.30
2018-06-18T07:58:44.252Z,29.60
2018-06-18T08:01:14.364Z,29.10
2018-06-18T08:03:44.441Z,29.30
2018-06-18T08:06:14.519Z,29.40
2018-06-18T08:08:44.646Z,29.80
2018-06-18T08:11:14.768Z,30.10
2018-06-18T08:13:44.844Z,30.30
2018-06-18T08:16:14.920Z,30.40
2018-06-18T08:18:45.151Z,30.10
2018-06-18T08:21:15.216Z,30.10
2018-06-18T08:23:45.331Z,30.20
2018-06-18T08:26:15.404Z,30.20
2018-06-18T08:28:45.505Z,30.10
2018-06-18T08:31:15.574Z,29.80
2018-06-18T08:33:45.708Z,30.00
2018-06-18T08:36:15.866Z,30.00
2018-06-18T08:38:45.835Z,30.00
2018-06-18T08:41:15.920Z,30.00
2018-06-18T08:43:45.995Z,30.00
2018-06-18T08:46:16.089Z,29.70
2018-06-18T08:48:51.551Z,29.70
2018-06-18T08:54:01.668Z,29.40
2018-06-18T08:56:36.976Z,29.50
2018-06-18T08:59:12.101Z,29.20
2018-06-18T09:01:42.252Z,29.00
2018-06-18T09:04:18.167Z,28.90
2018-06-18T09:06:48.234Z,28.50
2018-06-18T09:09:18.339Z,28.50
2018-06-18T09:11:48.401Z,28.30
2018-06-18T09:14:18.493Z,28.40
2018-06-18T09:16:48.591Z,28.40
2018-06-18T09:19:18.723Z,28.10
2018-06-18T09:21:48.804Z,28.00
2018-06-18T09:24:20.363Z,28.10
2018-06-18T09:26:54.582Z,28.00
2018-06-18T09:31:54.347Z,27.70
2018-06-18T09:34:24.397Z,27.70
2018-06-18T09:36:55.064Z,27.60
2018-06-18T09:39:25.128Z,27.60
2018-06-18T09:41:55.172Z,27.70
2018-06-18T09:44:25.263Z,27.80
2018-06-18T09:46:55.391Z,27.90
2018-06-18T09:50:33.344Z,27.90
2018-06-18T09:53:08.716Z,28.00
2018-06-18T09:55:44.164Z,27.90
2018-06-18T09:58:19.285Z,27.90
2018-06-18T10:01:07.691Z,27.90
2018-06-18T10:03:37.794Z,27.90
2018-06-18T10:06:08.730Z,27.80
2018-06-18T10:08:38.965Z,27.70
2018-06-18T10:11:09.056Z,27.70
2018-06-18T10:13:39.692Z,27.70
2018-06-18T10:16:09.944Z,27.60
2018-06-18T10:18:40.032Z,27.60
2018-06-18T10:21:10.228Z,27.50
2018-06-18T10:23:40.474Z,27.60
2018-06-18T10:28:40.320Z,27.50
2018-06-18T10:31:10.418Z,27.40
2018-06-18T10:33:45.960Z,27.40
2018-06-18T10:37:25.080Z,27.30
2018-06-18T10:40:00.487Z,27.20
2018-06-18T10:42:35.952Z,27.20
2018-06-18T10:47:36.177Z,26.90
2018-06-18T10:50:06.337Z,26.90
2018-06-18T10:52:36.436Z,26.90
2018-06-18T10:55:06.612Z,26.80
2018-06-18T10:57:36.711Z,26.70
2018-06-18T11:00:10.169Z,26.60
2018-06-18T11:02:40.320Z,26.60
2018-06-18T11:05:10.479Z,26.50
2018-06-18T11:10:10.235Z,26.50
2018-06-18T11:12:40.315Z,26.50
2018-06-18T11:15:10.441Z,26.50
2018-06-18T11:17:45.696Z,26.40
2018-06-18T11:20:21.172Z,26.40
2018-06-18T11:22:58.236Z,26.40
2018-06-18T11:28:03.430Z,26.30
2018-06-18T11:30:34.381Z,26.30
2018-06-18T11:33:05.355Z,26.40
2018-06-18T11:35:35.583Z,26.40
2018-06-18T11:38:05.690Z,26.50
2018-06-18T11:40:35.900Z,26.40
2018-06-18T11:43:06.521Z,26.40
2018-06-18T11:45:36.732Z,26.40
2018-06-18T11:48:16.537Z,26.40
2018-06-18T11:50:47.272Z,26.40
2018-06-18T11:53:17.984Z,26.30
2018-06-18T11:55:48.162Z,26.30
2018-06-18T11:58:23.661Z,26.30
2018-06-18T12:03:34.029Z,26.20
2018-06-18T12:06:09.332Z,26.30
2018-06-18T12:08:44.722Z,26.30
2018-06-18T12:11:14.802Z,26.40
2018-06-18T12:13:44.908Z,26.40
2018-06-18T12:16:15.013Z,26.40
2018-06-18T12:18:45.116Z,26.40
2018-06-18T12:21:15.233Z,26.40
2018-06-18T12:23:45.300Z,26.40
2018-06-18T12:26:15.420Z,26.30
2018-06-18T12:28:45.972Z,26.30
2018-06-18T12:31:16.076Z,26.30
2018-06-18T12:33:46.202Z,26.30
2018-06-18T12:36:16.284Z,26.30
2018-06-18T12:38:46.416Z,26.30
2018-06-18T12:41:18.383Z,26.20
2018-06-18T12:43:53.788Z,26.30
2018-06-18T12:46:29.071Z,26.30
2018-06-18T12:49:04.444Z,26.30
2018-06-18T12:51:39.774Z,26.30
2018-06-18T12:54:15.208Z,26.40
2018-06-18T12:56:50.461Z,26.40
2018-06-18T12:59:20.561Z,26.40
2018-06-18T13:01:57.684Z,26.30
2018-06-18T13:04:28.075Z,26.30
2018-06-18T13:06:58.161Z,26.20
2018-06-18T13:09:28.235Z,26.20
2018-06-18T13:11:58.324Z,26.20
2018-06-18T13:14:28.412Z,26.20
2018-06-18T13:16:58.505Z,26.20
2018-06-18T13:19:28.588Z,26.30
2018-06-18T13:21:58.828Z,26.30
2018-06-18T13:24:28.940Z,26.30
2018-06-18T13:26:59.024Z,26.40
2018-06-18T13:29:29.120Z,26.30
2018-06-18T13:31:59.284Z,26.30
2018-06-18T13:34:29.344Z,26.20
2018-06-18T13:37:04.576Z,26.20
2018-06-18T13:39:39.929Z,26.20
2018-06-18T13:42:15.259Z,26.20
2018-06-18T13:44:50.959Z,26.10
2018-06-18T13:47:26.212Z,26.10
2018-06-18T13:49:57.193Z,26.10
2018-06-18T13:52:27.340Z,26.10
2018-06-18T13:54:57.411Z,26.20
2018-06-18T13:57:27.508Z,26.20
2018-06-18T13:59:57.608Z,26.20
2018-06-18T14:02:27.704Z,26.20
2018-06-18T14:04:57.841Z,26.10
2018-06-18T14:07:27.900Z,26.10
2018-06-18T14:09:58.005Z,26.00
2018-06-18T14:12:28.077Z,26.00
2018-06-18T14:14:58.177Z,26.00
2018-06-18T14:17:28.276Z,26.00
2018-06-18T14:20:03.405Z,25.90
2018-06-18T14:25:03.170Z,26.00
2018-06-18T14:27:33.232Z,26.00
2018-06-18T14:30:08.672Z,26.00
2018-06-18T14:32:44.164Z,26.00
2018-06-18T14:35:19.411Z,26.00
2018-06-18T14:37:54.600Z,25.90
2018-06-18T14:40:24.688Z,25.80
2018-06-18T14:42:54.745Z,25.80
2018-06-18T14:45:24.820Z,25.80
2018-06-18T14:50:24.567Z,25.80
2018-06-18T14:52:54.662Z,25.80
2018-06-18T14:55:24.724Z,25.70
2018-06-18T14:57:54.836Z,25.70
2018-06-18T15:00:30.559Z,25.70
2018-06-18T15:03:00.649Z,25.60
2018-06-18T15:05:39.001Z,25.60
2018-06-18T15:08:09.082Z,25.60
2018-06-18T15:10:44.228Z,25.60
2018-06-18T15:13:15.440Z,25.60
2018-06-18T15:15:50.845Z,25.60
2018-06-18T15:18:20.898Z,25.50
2018-06-18T15:20:51.824Z,25.50
2018-06-18T15:23:21.916Z,25.40
2018-06-18T15:25:52.762Z,25.40
2018-06-18T15:28:22.819Z,25.40
2018-06-18T15:30:52.925Z,25.30
2018-06-18T15:33:22.989Z,25.30
2018-06-18T15:35:53.726Z,25.30
2018-06-18T15:38:23.832Z,25.20
2018-06-18T15:40:53.864Z,25.20
2018-06-18T15:43:23.968Z,25.10
2018-06-18T15:45:54.045Z,25.10
2018-06-18T15:48:24.200Z,25.00
2018-06-18T15:50:54.293Z,25.00
2018-06-18T15:53:24.386Z,25.00
2018-06-18T15:55:54.441Z,24.90
2018-06-18T15:58:24.576Z,24.90
2018-06-18T16:00:54.733Z,24.90
2018-06-18T16:03:24.815Z,24.80
2018-06-18T16:05:55.357Z,24.80
2018-06-18T16:08:25.440Z,24.80
2018-06-18T16:10:55.544Z,24.70
2018-06-18T16:13:25.592Z,24.60
2018-06-18T16:15:55.651Z,24.50
2018-06-18T16:18:25.817Z,24.50
2018-06-18T16:20:55.943Z,24.40
2018-06-18T16:23:26.020Z,24.40
2018-06-18T16:25:56.129Z,24.30
2018-06-18T16:28:26.227Z,24.30
2018-06-18T16:30:56.342Z,24.20
2018-06-18T16:33:26.476Z,24.20
2018-06-18T16:35:56.558Z,24.20
2018-06-18T16:38:26.636Z,24.10
2018-06-18T16:40:56.720Z,24.00
2018-06-18T16:43:26.804Z,24.00
2018-06-18T16:45:56.876Z,24.00
2018-06-18T16:48:27.023Z,24.00
2018-06-18T16:50:57.151Z,23.90
2018-06-18T16:53:27.265Z,23.80
2018-06-18T16:55:57.363Z,23.80
2018-06-18T16:58:27.516Z,23.70
2018-06-18T17:00:57.623Z,23.70
2018-06-18T17:03:27.792Z,23.60
2018-06-18T17:05:57.863Z,23.60
2018-06-18T17:08:27.943Z,23.50
2018-06-18T17:10:58.248Z,23.50
2018-06-18T17:13:28.578Z,23.50
2018-06-18T17:15:58.656Z,23.40
2018-06-18T17:18:28.717Z,23.40
2018-06-18T17:20:58.827Z,23.30
2018-06-18T17:23:28.901Z,23.20
2018-06-18T17:25:58.995Z,23.20
2018-06-18T17:28:29.244Z,23.20
2018-06-18T17:30:59.377Z,23.10
2018-06-18T17:33:29.469Z,23.10
2018-06-18T17:35:59.601Z,23.10
2018-06-18T17:38:33.188Z,23.00
2018-06-18T17:41:03.343Z,22.90
2018-06-18T17:43:33.496Z,22.80
2018-06-18T17:46:03.695Z,22.80
2018-06-18T17:48:33.852Z,22.70
2018-06-18T17:51:03.947Z,22.70
2018-06-18T17:53:34.016Z,22.60
2018-06-18T17:56:04.125Z,22.50
2018-06-18T17:58:34.223Z,22.50
2018-06-18T18:01:04.352Z,22.30
2018-06-18T18:03:34.610Z,22.30
2018-06-18T18:06:04.999Z,22.10
2018-06-18T18:13:27.291Z,21.90
2018-06-18T18:15:57.421Z,21.80
2018-06-18T18:18:27.639Z,21.70
2018-06-18T18:20:57.776Z,21.60
2018-06-18T18:23:28.475Z,21.40
2018-06-18T18:25:58.584Z,21.40
2018-06-18T18:28:28.660Z,21.30
2018-06-18T18:30:58.896Z,21.10
2018-06-18T18:33:28.972Z,21.00
2018-06-18T18:35:59.919Z,20.90
2018-06-18T18:38:30.052Z,20.80
2018-06-18T18:41:00.184Z,20.70
2018-06-18T18:43:30.296Z,20.50
2018-06-18T18:46:00.434Z,20.40
2018-06-18T18:51:00.322Z,20.10
2018-06-18T18:53:30.435Z,20.00
2018-06-18T18:56:17.476Z,19.90
2018-06-18T18:59:17.155Z,19.70
2018-06-18T19:01:47.284Z,19.60
2018-06-18T19:04:22.359Z,19.40
2018-06-18T19:06:53.563Z,19.30
2018-06-18T19:09:28.275Z,19.20
2018-06-18T19:11:58.546Z,19.10
2018-06-18T19:14:28.607Z,19.00
2018-06-18T19:16:58.774Z,18.80
2018-06-18T19:19:36.131Z,18.70
2018-06-18T19:22:06.641Z,18.60
2018-06-18T19:24:36.832Z,18.60
2018-06-18T19:27:06.904Z,18.50
2018-06-18T19:29:37.033Z,18.30
2018-06-18T19:32:07.253Z,18.30
2018-06-18T19:34:37.336Z,18.30
2018-06-18T19:37:07.569Z,18.20
2018-06-18T19:39:42.220Z,18.20
2018-06-18T19:42:12.828Z,18.10
2018-06-18T19:44:43.244Z,18.10
2018-06-18T19:47:35.452Z,18.00
2018-06-18T19:50:05.705Z,17.90
2018-06-18T19:52:35.781Z,17.90
2018-06-18T19:55:11.578Z,17.90
2018-06-18T19:57:41.668Z,17.90
2018-06-18T20:00:11.778Z,17.80
2018-06-18T20:02:41.845Z,17.80
2018-06-18T20:05:13.048Z,17.70
2018-06-18T20:07:55.064Z,17.70
2018-06-18T20:10:25.413Z,17.70
2018-06-18T20:12:55.549Z,17.70
2018-06-18T20:15:26.163Z,17.60
2018-06-18T20:17:56.276Z,17.50
2018-06-18T20:20:26.388Z,17.40
2018-06-18T20:22:56.524Z,17.40
2018-06-18T20:25:33.247Z,17.30
2018-06-18T20:28:03.332Z,17.30
2018-06-18T20:30:33.428Z,17.20
2018-06-18T20:33:04.516Z,17.10
2018-06-18T20:35:38.734Z,17.10
2018-06-18T20:38:08.812Z,17.10
2018-06-18T20:40:38.954Z,17.00
2018-06-18T20:43:09.367Z,17.00
2018-06-18T20:45:39.541Z,16.90
2018-06-18T20:48:09.639Z,16.80
2018-06-18T20:50:39.802Z,16.70
2018-06-18T20:53:10.996Z,16.60
2018-06-18T20:55:41.117Z,16.60
2018-06-18T20:58:11.452Z,16.50
2018-06-18T21:00:41.590Z,16.40
2018-06-18T21:03:11.757Z,16.40
2018-06-18T21:05:41.825Z,16.40
2018-06-18T21:08:11.967Z,16.40
2018-06-18T21:10:42.116Z,16.30
2018-06-18T21:13:12.241Z,16.30
2018-06-18T21:15:42.428Z,16.30
2018-06-18T21:18:12.525Z,16.30
2018-06-18T21:20:42.736Z,16.20
2018-06-18T21:23:12.844Z,16.10
2018-06-18T21:25:42.940Z,16.10
2018-06-18T21:28:13.118Z,16.10
2018-06-18T21:30:43.161Z,16.00
2018-06-18T21:33:13.235Z,16.00
2018-06-18T21:35:43.348Z,15.90
2018-06-18T21:38:13.452Z,15.90
2018-06-18T21:40:43.515Z,15.80
2018-06-18T21:43:13.625Z,15.80
2018-06-18T21:45:43.720Z,15.60
2018-06-18T21:48:13.905Z,15.60
2018-06-18T21:50:43.992Z,15.50
2018-06-18T21:53:14.233Z,15.60
2018-06-18T21:55:44.324Z,15.50
2018-06-18T21:58:14.482Z,15.50
2018-06-18T22:00:51.194Z,15.50
2018-06-18T22:03:21.339Z,15.50
2018-06-18T22:05:52.248Z,15.50
2018-06-18T22:08:25.032Z,15.50
2018-06-18T22:10:55.182Z,15.50
2018-06-18T22:13:25.348Z,15.40
2018-06-18T22:15:55.648Z,15.40
2018-06-18T22:18:25.759Z,15.30
2018-06-18T22:20:56.294Z,15.20
2018-06-18T22:23:26.400Z,15.10
2018-06-18T22:25:56.496Z,15.10
2018-06-18T22:28:32.981Z,15.00
2018-06-18T22:31:03.643Z,15.00
2018-06-18T22:33:33.760Z,15.00
2018-06-18T22:36:03.912Z,14.90
2018-06-18T22:38:34.180Z,14.90
2018-06-18T22:41:04.376Z,14.80
2018-06-18T22:43:34.517Z,14.70
2018-06-18T22:46:04.632Z,14.70
2018-06-18T22:48:34.784Z,14.70
2018-06-18T22:51:04.939Z,14.70
2018-06-18T22:53:35.056Z,14.70
2018-06-18T22:56:05.236Z,14.70
2018-06-18T22:58:35.319Z,14.60
2018-06-18T23:01:05.459Z,14.60
2018-06-18T23:03:35.569Z,14.60
2018-06-18T23:06:07.165Z,14.50
2018-06-18T23:08:37.373Z,14.40
2018-06-18T23:11:07.500Z,14.30
2018-06-18T23:13:38.604Z,14.20
2018-06-18T23:16:09.616Z,14.20
2018-06-18T23:18:39.760Z,14.20
2018-06-18T23:21:09.859Z,14.10
2018-06-18T23:23:40.131Z,14.10
2018-06-18T23:26:10.217Z,14.10
2018-06-18T23:28:48.460Z,14.00
2018-06-18T23:31:18.540Z,14.00
2018-06-18T23:33:48.672Z,14.00
2018-06-18T23:36:18.871Z,14.00
2018-06-18T23:38:49.035Z,14.00
2018-06-18T23:41:20.364Z,14.00
2018-06-18T23:43:51.036Z,14.10
2018-06-18T23:46:21.156Z,14.00
2018-06-18T23:48:51.260Z,14.00
2018-06-18T23:51:21.397Z,14.00
2018-06-18T23:53:51.584Z,14.00
2018-06-18T23:56:21.784Z,13.90
2018-06-18T23:58:51.924Z,13.80
